Time;durP1;ratioP1;P1;durP2;ratioP2;P2;SDS_P1;SDS_P2;PMS_P1;PMS_P2;Temp;Humidity;BMP_temperature;BMP_pressure;BME280_temperature;BME280_humidity;BME280_pressure;Samples;Min_cycle;Max_cycle;Signal;HPM_P1;HPM_P2
2023/10/24 00:00:51;;;;;;;30.03;2.47;;;;;;;22.56;55.19;98821.47;7309103;19;129334;-36
2023/10/24 00:03:16;;;;;;;43.85;3.60;;;;;;;22.56;54.52;98824.09;7316575;19;129277;-34
2023/10/24 00:05:42;;;;;;;78.30;4.37;;;;;;;22.47;52.76;98822.41;7316571;19;129936;-37
2023/10/24 00:08:07;;;;;;;28.23;2.13;;;;;;;22.54;52.42;98813.78;7317521;19;129284;-37
2023/10/24 00:10:34;;;;;;;46.53;2.85;;;;;;;22.63;52.06;98804.09;7313214;19;129095;-35
2023/10/24 00:12:59;;;;;;;46.58;2.88;;;;;;;22.69;51.56;98806.06;7316143;19;130448;-36
2023/10/24 00:15:25;;;;;;;64.07;3.60;;;;;;;22.69;51.67;98800.81;7315924;19;129242;-35
2023/10/24 00:17:50;;;;;;;31.97;2.47;;;;;;;22.73;52.18;98786.38;7316980;19;129273;-35
2023/10/24 00:20:16;;;;;;;90.37;5.47;;;;;;;22.68;52.83;98786.06;7315536;19;129120;-35
2023/10/24 00:22:41;;;;;;;53.00;3.23;;;;;;;22.64;53.69;98779.53;7311945;19;129663;-35
2023/10/24 00:25:07;;;;;;;55.35;3.53;;;;;;;22.60;53.65;98773.00;7316504;19;131028;-37
2023/10/24 00:27:32;;;;;;;29.87;2.53;;;;;;;22.59;53.55;98773.97;7314919;19;129428;-35
2023/10/24 00:29:58;;;;;;;31.55;2.10;;;;;;;22.59;53.73;98766.13;7315151;19;129317;-36
2023/10/24 00:32:23;;;;;;;82.70;4.73;;;;;;;22.55;54.62;98770.03;7313342;19;129465;-35
2023/10/24 00:34:48;;;;;;;49.80;3.15;;;;;;;22.59;54.65;98781.84;7314283;19;129716;-37
2023/10/24 00:37:14;;;;;;;42.60;3.17;;;;;;;22.56;54.38;98762.00;7315366;19;128640;-35
2023/10/24 00:39:39;;;;;;;30.90;2.50;;;;;;;22.57;54.91;98762.84;7315322;19;129000;-35
2023/10/24 00:42:05;;;;;;;67.63;3.93;;;;;;;22.54;54.47;98756.16;7314598;19;129526;-36
2023/10/24 00:44:32;;;;;;;46.40;3.03;;;;;;;22.44;54.58;98728.44;7315775;19;130468;-36
2023/10/24 00:46:57;;;;;;;35.85;2.67;;;;;;;22.55;54.49;98742.06;7315317;19;129011;-35
2023/10/24 00:49:23;;;;;;;90.37;5.83;;;;;;;22.55;54.67;98736.00;7315118;19;129146;-35
2023/10/24 00:51:49;;;;;;;69.73;4.07;;;;;;;22.35;53.39;98724.19;7313488;19;129936;-36
2023/10/24 00:54:14;;;;;;;55.67;3.63;;;;;;;22.55;52.37;98733.38;7315794;19;129448;-35
2023/10/24 00:56:43;;;;;;;50.40;3.13;;;;;;;22.61;51.91;98748.44;7312901;19;129479;-35
2023/10/24 00:59:09;;;;;;;33.65;2.38;;;;;;;22.66;51.07;98754.00;7313479;19;128958;-35
2023/10/24 01:01:34;;;;;;;67.53;3.73;;;;;;;22.70;51.23;98755.28;7313919;19;130126;-37
2023/10/24 01:04:00;;;;;;;26.90;2.17;;;;;;;22.75;51.92;98747.75;7314223;19;129745;-35
2023/10/24 01:06:26;;;;;;;56.13;3.88;;;;;;;22.70;52.60;98739.56;7314069;19;129438;-36
2023/10/24 01:08:51;;;;;;;37.53;2.53;;;;;;;;;;7311408;19;129511;-36
2023/10/24 01:11:17;;;;;;;67.03;3.90;;;;;;;22.62;53.63;98736.97;7311338;19;129146;-37
2023/10/24 01:13:42;;;;;;;46.13;3.17;;;;;;;22.61;53.44;98730.09;7311372;19;129309;-36
2023/10/24 01:16:08;;;;;;;16.00;1.60;;;;;;;22.60;54.09;98736.31;7314347;19;129281;-36
2023/10/24 01:18:33;;;;;;;94.45;5.25;;;;;;;22.60;54.37;98738.94;7312023;19;129336;-36
2023/10/24 01:20:58;;;;;;;82.13;4.75;;;;;;;22.60;54.60;98738.94;7312711;19;129455;-36
2023/10/24 01:23:27;;;;;;;40.03;3.03;;;;;;;22.57;54.35;98740.09;7314219;19;129130;-36
2023/10/24 01:25:56;;;;;;;49.97;3.45;;;;;;;22.45;54.86;98719.59;7311563;19;129909;-37
2023/10/24 01:28:23;;;;;;;72.32;4.18;;;;;;;22.55;54.34;98734.19;7314213;19;129289;-35
2023/10/24 01:30:48;;;;;;;67.20;3.85;;;;;;;22.56;54.60;98737.66;7309324;19;129166;-36
2023/10/24 01:33:13;;;;;;;60.27;3.83;;;;;;;22.45;54.47;98717.81;7314029;19;130386;-36
2023/10/24 01:35:39;;;;;;;35.13;2.75;;;;;;;22.55;55.02;98736.81;7312161;19;129572;-36
2023/10/24 01:38:04;;;;;;;41.03;2.53;;;;;;;22.34;52.64;98712.09;7314408;19;128984;-35
2023/10/24 01:40:29;;;;;;;73.50;3.97;;;;;;;22.57;51.80;98736.66;7310361;19;129782;-36
2023/10/24 01:42:55;;;;;;;30.03;2.23;;;;;;;22.65;51.71;98731.38;7313162;19;129194;-35
2023/10/24 01:45:20;;;;;;;58.83;3.77;;;;;;;22.67;50.95;98734.66;7311523;19;129547;-35
2023/10/24 01:47:46;;;;;;;77.82;4.45;;;;;;;22.64;51.33;98724.53;7313561;19;128911;-35
2023/10/24 01:50:12;;;;;;;50.28;3.03;;;;;;;22.74;52.07;98730.41;7311883;19;129201;-36
2023/10/24 01:52:37;;;;;;;10.67;1.07;;;;;;;22.66;52.92;98715.50;7310784;19;130139;-35
2023/10/24 01:55:03;;;;;;;43.20;3.07;;;;;;;22.63;52.98;98717.63;7312220;19;130274;-36
2023/10/24 01:57:28;;;;;;;89.25;5.03;;;;;;;22.62;53.10;98716.00;7313261;19;128859;-35
2023/10/24 01:59:53;;;;;;;55.33;3.60;;;;;;;22.61;53.81;98698.66;7313775;19;129904;-35
2023/10/24 02:02:19;;;;;;;52.20;3.63;;;;;;;22.60;54.06;98700.47;7309489;19;130220;-37
2023/10/24 02:04:44;;;;;;;35.77;2.47;;;;;;;22.60;54.61;98707.50;7311955;19;129119;-36
2023/10/24 02:07:09;;;;;;;80.73;4.33;;;;;;;22.50;53.91;98686.69;7310263;19;129376;-35
2023/10/24 02:09:35;;;;;;;25.60;1.93;;;;;;;22.58;54.37;98694.56;7314399;19;130214;-36
2023/10/24 02:12:01;;;;;;;30.20;2.17;;;;;;;22.56;54.67;98691.28;7309031;19;129805;-35
2023/10/24 02:14:29;;;;;;;68.13;4.17;;;;;;;22.55;54.71;98694.06;7312856;19;129216;-36
2023/10/24 02:16:55;;;;;;;81.55;4.55;;;;;;;22.57;55.08;98705.22;7309731;19;129860;-36
2023/10/24 02:19:21;;;;;;;91.90;5.93;;;;;;;22.56;55.28;98700.97;7312732;19;130857;-35
2023/10/24 02:21:46;;;;;;;53.38;3.42;;;;;;;22.47;54.35;98708.00;7308495;19;129401;-36
2023/10/24 02:24:12;;;;;;;48.23;2.93;;;;;;;22.50;52.36;98698.97;7311951;19;129287;-34
2023/10/24 02:26:37;;;;;;;76.43;4.15;;;;;;;22.59;51.86;98690.94;7309388;19;129011;-35
2023/10/24 02:29:03;;;;;;;26.23;2.03;;;;;;;22.68;51.89;98699.59;7313159;19;129672;-35
2023/10/24 02:31:28;;;;;;;89.97;5.18;;;;;;;22.71;51.01;98710.56;7307271;19;129895;-35
2023/10/24 02:33:53;;;;;;;49.67;2.95;;;;;;;22.80;52.00;98706.97;7311251;19;129147;-35
2023/10/24 02:36:19;;;;;;;73.25;4.07;;;;;;;22.70;52.08;98689.78;7312020;19;129751;-36
2023/10/24 02:38:44;;;;;;;37.63;2.65;;;;;;;22.65;52.62;98684.22;7310424;19;130679;-35
2023/10/24 02:41:09;;;;;;;29.50;2.20;;;;;;;22.61;53.24;98675.88;7310316;19;129484;-34
2023/10/24 02:43:35;;;;;;;63.17;3.47;;;;;;;22.61;53.96;98683.75;7309723;19;128979;-36
2023/10/24 02:46:05;;;;;;;35.63;2.40;;;;;;;22.58;54.12;98684.09;7312961;19;128982;-36
2023/10/24 02:48:31;;;;;;;45.28;3.00;;;;;;;22.57;54.18;98698.19;7308850;19;130785;-35
2023/10/24 02:50:57;;;;;;;24.63;1.83;;;;;;;22.57;54.10;98692.13;7308082;19;129541;-37
2023/10/24 02:53:23;;;;;;;87.23;5.13;;;;;;;22.57;54.53;98690.31;7310065;19;129295;-35
2023/10/24 02:55:49;;;;;;;38.43;2.57;;;;;;;22.56;54.29;98685.25;7312358;19;129062;-36
2023/10/24 02:58:15;;;;;;;68.87;4.37;;;;;;;22.57;55.05;98687.69;7300617;19;129537;-35
2023/10/24 03:00:41;;;;;;;39.70;2.65;;;;;;;22.56;54.79;98680.00;7308639;19;130318;-35
2023/10/24 03:03:07;;;;;;;70.93;3.87;;;;;;;22.57;54.61;98681.63;7309443;19;129531;-36
2023/10/24 03:05:32;;;;;;;65.55;4.03;;;;;;;22.56;55.12;98677.41;7312564;19;129541;-36
2023/10/24 03:07:57;;;;;;;34.57;2.37;;;;;;;22.47;53.07;98686.22;7309402;19;131340;-36
2023/10/24 03:10:25;;;;;;;62.10;4.03;;;;;;;22.54;51.75;98666.25;7307220;19;130404;-35
2023/10/24 03:12:54;;;;;;;123.50;6.32;;;;;;;22.61;51.29;98660.16;7308779;19;129605;-36
2023/10/24 03:15:19;;;;;;;31.67;2.15;;;;;;;22.67;50.88;98664.75;7312296;19;129988;-36
2023/10/24 03:17:45;;;;;;;43.80;2.67;;;;;;;22.74;52.20;98668.31;7308027;19;130654;-36
2023/10/24 03:20:10;;;;;;;31.53;2.00;;;;;;;22.69;52.72;98659.34;7309697;19;130364;-35
2023/10/24 03:22:36;;;;;;;123.70;6.27;;;;;;;22.65;52.90;98652.78;7306544;19;129350;-36
2023/10/24 03:25:02;;;;;;;41.73;2.67;;;;;;;22.62;53.10;98653.97;7310885;19;129541;-34
2023/10/24 03:27:27;;;;;;;86.63;5.10;;;;;;;22.60;53.65;98655.09;7309088;19;130089;-35
2023/10/24 03:29:52;;;;;;;41.27;2.53;;;;;;;22.61;53.92;98654.13;7309616;19;129271;-35
2023/10/24 03:32:18;;;;;;;68.90;3.75;;;;;;;22.60;53.83;98652.47;7308846;19;130037;-37
2023/10/24 03:34:43;;;;;;;33.77;2.37;;;;;;;22.59;54.57;98648.22;7307555;19;130502;-36
2023/10/24 03:37:08;;;;;;;38.17;2.37;;;;;;;22.58;54.21;98652.66;7315720;19;131095;-35
2023/10/24 03:39:34;;;;;;;103.67;6.00;;;;;;;22.59;55.13;98656.09;7311858;19;130280;-35
2023/10/24 03:41:59;;;;;;;59.17;3.37;;;;;;;22.58;54.99;98654.44;7316575;19;129024;-36
2023/10/24 03:44:24;;;;;;;52.70;3.30;;;;;;;22.55;54.83;98668.72;7316468;19;129656;-35
2023/10/24 03:46:50;;;;;;;36.03;2.27;;;;;;;22.56;55.07;98667.72;7315393;19;129396;-35
2023/10/24 03:49:16;;;;;;;83.40;4.97;;;;;;;22.58;54.46;98667.53;7316333;19;129559;-35
2023/10/24 03:51:41;;;;;;;120.70;6.65;;;;;;;22.54;54.26;98666.25;7314378;19;129572;-36
2023/10/24 03:54:07;;;;;;;36.10;2.33;;;;;;;22.51;52.59;98666.56;7316871;19;129800;-36
2023/10/24 03:56:32;;;;;;;69.03;3.97;;;;;;;22.59;51.55;98656.88;7315112;19;130216;-36
2023/10/24 03:58:58;;;;;;;61.67;3.33;;;;;;;22.63;51.75;98662.59;7314398;19;129154;-35
2023/10/24 04:01:24;;;;;;;44.30;2.63;;;;;;;22.68;50.80;98662.91;7316009;19;129078;-36
2023/10/24 04:03:49;;;;;;;48.92;2.92;;;;;;;22.75;52.74;98663.88;7316531;19;129046;-35
2023/10/24 04:06:15;;;;;;;37.93;2.53;;;;;;;22.67;53.00;98662.13;7316541;19;129680;-35
2023/10/24 04:08:40;;;;;;;94.80;5.07;;;;;;;22.63;53.57;98670.47;7311466;19;131040;-35
2023/10/24 04:11:14;;;;;;;50.60;3.07;;;;;;;22.61;54.61;98667.22;7314536;19;129293;-35
2023/10/24 04:13:39;;;;;;;46.10;2.92;;;;;;;22.60;53.57;98657.72;7315981;19;129176;-35
2023/10/24 04:16:04;;;;;;;74.93;4.50;;;;;;;22.58;54.25;98655.25;7314695;19;129115;-35
2023/10/24 04:18:30;;;;;;;97.77;5.50;;;;;;;22.58;54.37;98641.34;7315581;19;129416;-33
2023/10/24 04:20:55;;;;;;;26.63;1.90;;;;;;;22.48;54.52;98619.72;7313031;19;129158;-37
2023/10/24 04:23:20;;;;;;;53.22;3.25;;;;;;;22.57;54.23;98639.72;7314124;19;128954;-35
2023/10/24 04:25:46;;;;;;;32.23;2.03;;;;;;;22.56;54.71;98643.34;7314002;19;130151;-35
2023/10/24 04:28:12;;;;;;;65.57;3.83;;;;;;;22.56;55.01;98638.88;7315652;19;129784;-35
2023/10/24 04:30:41;;;;;;;70.00;4.07;;;;;;;22.54;55.00;98629.59;7309275;19;129946;-35
2023/10/24 04:33:08;;;;;;;32.03;2.10;;;;;;;22.55;54.57;98632.03;7315268;19;129212;-35
2023/10/24 04:35:40;;;;;;;62.33;3.95;;;;;;;22.54;55.99;98630.41;7313528;19;130109;-34
2023/10/24 04:38:06;;;;;;;66.43;3.50;;;;;;;22.48;52.97;98619.72;7315703;19;130485;-36
2023/10/24 04:40:31;;;;;;;96.83;5.43;;;;;;;22.55;51.92;98625.97;7310898;19;129327;-34
2023/10/24 04:42:56;;;;;;;27.98;1.77;;;;;;;22.61;51.94;98630.56;7315460;19;129539;-35
2023/10/24 04:45:22;;;;;;;26.95;2.15;;;;;;;22.68;51.37;98600.03;7311022;19;130155;-36
2023/10/24 04:47:47;;;;;;;73.17;3.70;;;;;;;22.73;51.27;98600.34;7311695;19;130521;-33
2023/10/24 04:50:13;;;;;;;61.00;3.60;;;;;;;22.73;51.82;98592.47;7308365;19;129565;-36
2023/10/24 04:52:38;;;;;;;80.10;4.77;;;;;;;22.67;52.45;98582.69;7311073;19;130044;-35
2023/10/24 04:55:04;;;;;;;64.93;3.80;;;;;;;22.60;53.64;98571.25;7311738;19;131684;-36
2023/10/24 04:57:30;;;;;;;83.72;4.78;;;;;;;22.57;53.64;98571.59;7311529;19;131052;-36
2023/10/24 04:59:55;;;;;;;29.15;2.03;;;;;;;22.58;54.08;98574.06;7315125;19;129814;-34
2023/10/24 05:02:20;;;;;;;31.83;1.97;;;;;;;22.59;53.75;98580.13;7307422;19;130695;-34
2023/10/24 05:04:46;;;;;;;51.10;2.97;;;;;;;22.57;54.29;98587.31;7312182;19;130047;-36
2023/10/24 05:07:11;;;;;;;51.63;3.07;;;;;;;22.56;54.70;98577.84;7309793;19;130688;-35
2023/10/24 05:09:36;;;;;;;66.17;4.07;;;;;;;22.54;54.17;98571.94;7313207;19;129581;-36
2023/10/24 05:12:03;;;;;;;192.17;10.87;;;;;;;22.55;54.37;98576.19;7307888;19;130017;-35
2023/10/24 05:14:28;;;;;;;87.30;4.88;;;;;;;22.54;54.32;98577.19;7313474;19;130877;-34
2023/10/24 05:16:53;;;;;;;142.53;7.53;;;;;;;22.43;54.40;98551.34;7309004;19;130651;-36
2023/10/24 05:19:19;;;;;;;69.37;4.47;;;;;;;22.56;54.85;98564.75;7310941;19;129693;-35
2023/10/24 05:21:44;;;;;;;47.10;3.03;;;;;;;22.46;52.77;98566.72;7311487;19;129176;-35
2023/10/24 05:24:09;;;;;;;68.83;3.57;;;;;;;22.51;52.31;98559.19;7309684;19;129268;-35
2023/10/24 05:26:35;;;;;;;64.43;3.97;;;;;;;22.61;51.99;98558.00;7313953;19;129467;-36
2023/10/24 05:29:00;;;;;;;55.80;3.20;;;;;;;22.68;51.44;98552.88;7313479;19;128832;-34
2023/10/24 05:31:26;;;;;;;27.30;1.93;;;;;;;22.73;50.90;98550.56;7312945;19;129231;-35
2023/10/24 05:33:52;;;;;;;84.70;4.70;;;;;;;22.68;54.03;98555.50;7311581;19;131524;-33
2023/10/24 05:36:17;;;;;;;47.63;2.83;;;;;;;22.70;53.88;98556.16;7314850;19;131169;-36
2023/10/24 05:38:43;;;;;;;85.40;4.63;;;;;;;22.85;53.95;98551.81;7314063;19;129714;-35
2023/10/24 05:41:08;;;;;;;12.15;1.17;;;;;;;22.89;53.03;98547.88;7309281;19;130011;-36
2023/10/24 05:43:36;;;;;;;83.37;4.57;;;;;;;22.85;53.50;98531.66;7312920;19;130654;-35
2023/10/24 05:46:03;;;;;;;31.67;1.95;;;;;;;23.02;54.06;98545.50;7314112;19;130379;-36
2023/10/24 05:48:28;;;;;;;30.60;2.15;;;;;;;23.09;53.57;98552.47;7310557;19;129515;-37
2023/10/24 05:50:54;;;;;;;43.47;2.60;;;;;;;23.13;53.52;98553.78;7309724;19;129684;-35
2023/10/24 05:53:19;;;;;;;118.63;6.43;;;;;;;23.24;53.62;98561.22;7309450;19;129962;-37
2023/10/24 05:55:44;;;;;;;69.07;4.30;;;;;;;23.29;53.43;98559.91;7311354;19;130361;-35
2023/10/24 05:58:10;;;;;;;38.33;2.37;;;;;;;23.32;53.19;98544.63;7309527;19;129168;-35
2023/10/24 06:00:35;;;;;;;85.53;4.60;;;;;;;23.45;53.77;98550.13;7309494;19;129954;-35
2023/10/24 06:03:01;;;;;;;62.00;3.63;;;;;;;23.47;53.60;98553.34;7312340;19;130098;-35
2023/10/24 06:05:26;;;;;;;43.90;2.87;;;;;;;23.54;52.68;98551.66;7313070;19;129088;-36
2023/10/24 06:07:51;;;;;;;35.07;2.50;;;;;;;23.65;51.82;98553.06;7310664;19;129632;-34
2023/10/24 06:10:17;;;;;;;61.93;3.33;;;;;;;23.81;51.73;98555.53;7312336;19;130389;-34
2023/10/24 06:12:42;;;;;;;79.10;4.30;;;;;;;23.79;51.76;98539.94;7308880;19;131310;-35
2023/10/24 06:15:08;;;;;;;38.10;2.33;;;;;;;23.93;51.65;98556.72;7312220;19;130228;-34
2023/10/24 06:17:34;;;;;;;46.17;2.88;;;;;;;24.01;52.16;98557.50;7311814;19;129616;-35
2023/10/24 06:19:59;;;;;;;157.87;8.57;;;;;;;24.07;51.93;98543.63;7288588;19;129198;-36
2023/10/24 06:22:25;;;;;;;83.90;4.87;;;;;;;24.11;51.45;98549.34;7292999;19;130475;-37
2023/10/24 06:24:50;;;;;;;115.00;6.47;;;;;;;24.17;51.90;98546.81;7291495;19;131351;-35
2023/10/24 06:27:16;;;;;;;135.77;7.70;;;;;;;24.17;52.05;98533.66;7294183;19;129696;-35
2023/10/24 06:29:42;;;;;;;198.20;10.77;;;;;;;24.14;52.17;98536.66;7288939;19;130169;-35
2023/10/24 06:32:07;;;;;;;107.27;6.10;;;;;;;24.10;52.25;98527.50;7293660;19;131175;-37
2023/10/24 06:34:33;;;;;;;252.47;14.50;;;;;;;23.99;52.72;98535.84;7289809;19;130139;-36
2023/10/24 06:36:59;;;;;;;83.43;5.03;;;;;;;23.90;53.23;98547.38;7291855;19;130189;-38
2023/10/24 06:39:24;;;;;;;144.43;7.87;;;;;;;23.66;52.90;98533.69;7294289;19;131053;-38
2023/10/24 06:41:50;;;;;;;90.50;5.47;;;;;;;23.81;51.03;98553.72;7291403;19;130665;-37
2023/10/24 06:44:15;;;;;;;125.03;6.97;;;;;;;23.66;52.66;98533.69;7290983;19;129954;-39
2023/10/24 06:46:40;;;;;;;122.60;6.93;;;;;;;23.65;53.01;98553.84;7287111;19;130110;-39
2023/10/24 06:49:06;;;;;;;155.23;8.33;;;;;;;23.59;53.58;98549.31;7292422;19;130322;-37
2023/10/24 06:51:31;;;;;;;121.93;7.22;;;;;;;23.50;53.34;98549.56;7288305;19;131179;-36
2023/10/24 06:53:57;;;;;;;119.10;7.00;;;;;;;23.34;53.74;98519.03;7292293;19;130159;-35
2023/10/24 06:56:22;;;;;;;282.73;15.23;;;;;;;23.41;54.85;98540.13;7288431;19;129444;-38
2023/10/24 06:58:47;;;;;;;96.40;5.88;;;;;;;23.37;54.87;98534.41;7290602;19;129029;-37
2023/10/24 07:01:13;;;;;;;116.63;6.80;;;;;;;23.35;54.84;98530.34;7292237;19;130151;-37
2023/10/24 07:03:38;;;;;;;164.80;10.23;;;;;;;23.30;54.93;98522.19;7288387;19;131940;-36
2023/10/24 07:06:04;;;;;;;145.93;8.17;;;;;;;23.26;55.00;98519.06;7291417;19;132132;-37
2023/10/24 07:08:30;;;;;;;130.60;7.38;;;;;;;23.24;55.53;98514.00;7292687;19;130028;-38
2023/10/24 07:10:55;;;;;;;103.20;5.93;;;;;;;23.21;55.38;98503.06;7283200;19;130281;-37
2023/10/24 07:13:21;;;;;;;117.83;6.83;;;;;;;23.19;55.43;98503.22;7293832;19;131097;-35
2023/10/24 07:15:46;;;;;;;179.55;9.82;;;;;;;23.10;53.32;98474.66;7293060;19;132362;-37
2023/10/24 07:18:12;;;;;;;120.77;6.90;;;;;;;23.28;52.11;98487.47;7292843;19;128997;-38
2023/10/24 07:20:38;;;;;;;165.80;9.10;;;;;;;23.34;51.78;98477.06;7288902;19;130048;-38
2023/10/24 07:23:04;;;;;;;108.93;6.23;;;;;;;23.36;51.57;98474.28;7291350;19;130398;-35
2023/10/24 07:25:29;;;;;;;173.13;9.20;;;;;;;23.38;53.62;98467.88;7288262;19;129816;-36
2023/10/24 07:27:56;;;;;;;63.53;3.90;;;;;;;23.32;54.00;98458.06;7291993;19;129033;-37
2023/10/24 07:30:22;;;;;;;246.07;13.88;;;;;;;23.20;53.89;98456.84;7286942;19;131032;-36
2023/10/24 07:32:48;;;;;;;162.03;9.00;;;;;;;23.11;54.78;98455.28;7283101;19;131113;-35
2023/10/24 07:35:13;;;;;;;161.77;8.63;;;;;;;23.07;55.00;98448.78;7289872;19;130492;-38
2023/10/24 07:37:39;;;;;;;121.60;6.93;;;;;;;23.05;55.33;98450.75;7286571;19;131899;-37
2023/10/24 07:40:05;;;;;;;114.35;6.55;;;;;;;22.88;55.40;98423.03;7289167;19;130170;-37
2023/10/24 07:42:30;;;;;;;127.17;7.50;;;;;;;22.98;55.47;98436.72;7286991;19;133298;-37
2023/10/24 07:44:56;;;;;;;135.80;7.57;;;;;;;22.98;55.83;98440.16;7288231;19;129114;-37
2023/10/24 07:47:22;;;;;;;61.67;3.93;;;;;;;22.83;55.85;98422.75;7292133;19;130585;-37
2023/10/24 07:49:47;;;;;;;155.90;8.90;;;;;;;22.92;55.64;98440.06;7287185;19;131429;-36
2023/10/24 07:52:12;;;;;;;182.87;10.13;;;;;;;22.95;56.30;98442.31;7286490;19;129311;-37
2023/10/24 07:54:38;;;;;;;142.13;7.83;;;;;;;22.97;54.93;98453.44;7292231;19;130143;-38
2023/10/24 07:57:04;;;;;;;112.73;6.53;;;;;;;23.07;52.59;98454.03;7291186;19;130133;-38
2023/10/24 07:59:29;;;;;;;122.57;6.97;;;;;;;23.10;52.49;98443.19;7290203;19;132603;-37
2023/10/24 08:01:55;;;;;;;169.50;8.93;;;;;;;23.19;52.07;98439.47;7286982;19;130374;-37
2023/10/24 08:04:20;;;;;;;140.77;7.97;;;;;;;23.21;53.62;98448.81;7290453;19;129425;-36
2023/10/24 08:06:45;;;;;;;130.87;7.40;;;;;;;23.19;54.81;98455.22;7290318;19;129574;-37
2023/10/24 08:09:11;;;;;;;116.82;6.80;;;;;;;23.12;54.74;98456.94;7290519;19;132102;-38
2023/10/24 08:11:36;;;;;;;160.20;8.73;;;;;;;23.10;54.33;98451.03;7288308;19;130144;-37
2023/10/24 08:14:02;;;;;;;142.50;8.17;;;;;;;23.18;54.70;98449.16;7289964;19;129669;-37
2023/10/24 08:16:27;;;;;;;77.22;4.45;;;;;;;23.19;54.94;98442.09;7290939;19;129266;-36
2023/10/24 08:18:52;;;;;;;149.13;8.63;;;;;;;23.15;55.07;98444.25;7286592;19;130433;-37
2023/10/24 08:21:18;;;;;;;165.93;8.73;;;;;;;23.11;55.30;98439.56;7288152;19;131495;-38
2023/10/24 08:23:43;;;;;;;137.13;7.70;;;;;;;23.08;55.39;98448.59;7296815;19;131782;-37
2023/10/24 08:26:08;;;;;;;110.20;6.33;;;;;;;22.94;55.59;98432.84;7298320;19;129505;-35
2023/10/24 08:28:34;;;;;;;136.00;7.47;;;;;;;23.06;55.47;98462.88;7297038;19;129199;-37
2023/10/24 08:30:59;;;;;;;139.38;7.50;;;;;;;22.93;55.84;98421.53;7295447;19;129572;-37
2023/10/24 08:33:24;;;;;;;121.20;6.87;;;;;;;23.10;53.57;98448.44;7298372;19;130566;-37
2023/10/24 08:35:50;;;;;;;130.27;7.63;;;;;;;23.18;52.37;98448.34;7296657;19;131784;-37
2023/10/24 08:38:15;;;;;;;148.03;8.03;;;;;;;23.25;51.99;98444.03;7297059;19;129066;-36
2023/10/24 08:40:41;;;;;;;127.77;6.93;;;;;;;23.36;52.05;98438.38;7295468;19;129912;-38
2023/10/24 08:43:06;;;;;;;119.30;6.83;;;;;;;23.29;53.87;98437.44;7297189;19;130108;-37
2023/10/24 08:45:31;;;;;;;140.60;7.60;;;;;;;23.22;54.81;98436.53;7294718;19;131200;-36
2023/10/24 08:47:59;;;;;;;197.67;10.57;;;;;;;23.18;54.49;98424.75;7295565;19;129642;-36
2023/10/24 08:50:24;;;;;;;150.75;8.27;;;;;;;23.12;55.36;98426.25;7297110;19;130379;-37
2023/10/24 08:52:51;;;;;;;123.73;7.13;;;;;;;23.10;55.16;98435.31;7295880;19;131805;-37
2023/10/24 08:55:18;;;;;;;112.10;6.70;;;;;;;23.07;55.50;98428.59;7296309;19;130178;-37
2023/10/24 08:57:45;;;;;;;174.52;9.63;;;;;;;23.06;55.32;98418.28;7293734;19;134853;-36
2023/10/24 09:00:13;;;;;;;112.25;6.38;;;;;;;23.09;55.28;98429.25;7296990;19;131336;-37
2023/10/24 09:02:41;;;;;;;71.82;4.28;;;;;;;23.15;55.09;98427.72;7295151;19;129976;-37
2023/10/24 09:05:09;;;;;;;59.90;3.67;;;;;;;23.23;54.88;98448.63;7296759;19;129518;-37
2023/10/24 09:07:35;;;;;;;123.18;6.68;;;;;;;23.27;55.15;98452.53;7296366;19;130350;-37
2023/10/24 09:10:01;;;;;;;137.53;7.67;;;;;;;23.35;54.97;98451.66;7293789;19;129483;-37
2023/10/24 09:12:29;;;;;;;101.47;6.00;;;;;;;23.39;53.51;98434.59;7295496;19;130069;-36
2023/10/24 09:14:55;;;;;;;141.20;8.18;;;;;;;23.56;52.28;98457.84;7294654;19;129236;-37
2023/10/24 09:17:23;;;;;;;127.60;7.03;;;;;;;23.47;53.36;98447.63;7295608;19;130160;-36
2023/10/24 09:19:48;;;;;;;150.48;8.32;;;;;;;23.41;53.50;98470.13;7294794;19;130444;-36
2023/10/24 09:22:18;;;;;;;112.27;6.70;;;;;;;23.44;54.26;98482.06;7294923;19;129930;-37
2023/10/24 09:24:45;;;;;;;86.97;5.35;;;;;;;23.40;54.30;98484.25;7296550;19;130452;-38
2023/10/24 09:27:10;;;;;;;122.03;6.97;;;;;;;23.35;54.41;98489.22;7294554;19;130223;-38
2023/10/24 09:29:36;;;;;;;153.43;8.40;;;;;;;23.32;55.24;98481.69;7293472;19;131101;-37
2023/10/24 09:32:01;;;;;;;129.80;7.47;;;;;;;23.31;55.28;98481.84;7292765;19;130736;-38
2023/10/24 09:34:27;;;;;;;102.37;6.13;;;;;;;23.29;55.37;98471.53;7294862;19;130022;-36
2023/10/24 09:36:52;;;;;;;152.63;8.50;;;;;;;23.24;55.08;98466.81;7296775;19;132661;-36
2023/10/24 09:39:17;;;;;;;138.70;8.50;;;;;;;23.25;55.17;98450.06;7295577;19;130470;-39
2023/10/24 09:41:44;;;;;;;100.90;5.87;;;;;;;23.26;55.72;98427.28;7293355;19;129208;-38
2023/10/24 09:44:10;;;;;;;112.88;6.72;;;;;;;23.22;55.25;98423.41;7293731;19;129382;-38
2023/10/24 09:46:37;;;;;;;100.03;5.53;;;;;;;23.21;55.72;98404.22;7295816;19;132957;-37
2023/10/24 09:49:07;;;;;;;134.13;7.50;;;;;;;23.25;53.22;98400.25;7296234;19;131404;-37
2023/10/24 09:51:37;;;;;;;115.80;6.75;;;;;;;23.33;52.01;98406.44;7292950;19;129309;-37
2023/10/24 09:54:11;;;;;;;130.60;7.28;;;;;;;23.41;51.53;98407.19;7293308;19;129592;-37
2023/10/24 09:56:37;;;;;;;142.95;8.15;;;;;;;23.42;53.73;98427.16;7294831;19;133134;-37
2023/10/24 09:59:02;;;;;;;182.37;9.93;;;;;;;23.40;53.75;98423.91;7294590;19;129808;-36
2023/10/24 10:01:28;;;;;;;121.30;7.17;;;;;;;23.35;54.80;98423.66;7294290;19;129430;-36
2023/10/24 10:04:00;;;;;;;145.10;8.17;;;;;;;23.28;54.93;98414.03;7293412;19;129078;-38
2023/10/24 10:06:30;;;;;;;85.28;5.05;;;;;;;23.20;54.99;98422.78;7293355;19;132339;-38
2023/10/24 10:09:00;;;;;;;153.38;8.20;;;;;;;23.15;55.48;98419.88;7292800;19;130703;-37
2023/10/24 10:11:30;;;;;;;145.40;8.32;;;;;;;23.14;55.87;98407.72;7292643;19;129152;-38
2023/10/24 10:14:25;;;;;;;108.70;6.50;;;;;;;23.07;55.92;98391.91;7294327;19;132130;-38
2023/10/24 10:17:04;;;;;;;142.45;7.93;;;;;;;22.88;55.46;98371.44;7294385;19;131006;-36
2023/10/24 10:19:48;;;;;;;158.20;9.40;;;;;;;23.01;56.36;98381.31;7293802;19;129714;-37
2023/10/24 10:22:47;;;;;;;113.93;6.70;;;;;;;22.93;55.14;98363.88;7292816;19;130535;-37
2023/10/24 10:25:32;;;;;;;119.45;7.00;;;;;;;23.14;55.86;98374.47;7294552;19;129215;-37
2023/10/24 10:28:23;;;;;;;117.97;6.60;;;;;;;23.24;54.44;98372.41;7292800;19;130309;-35
2023/10/24 10:30:57;;;;;;;90.47;5.55;;;;;;;23.30;52.63;98355.19;7292343;19;129132;-37
2023/10/24 10:33:24;;;;;;;94.88;5.53;;;;;;;23.40;53.13;98350.47;7292261;19;130116;-36
2023/10/24 10:35:53;;;;;;;115.50;6.65;;;;;;;23.51;53.93;98372.81;7294087;19;130803;-35
2023/10/24 10:38:49;;;;;;;165.35;9.07;;;;;;;23.49;54.01;98364.28;7292753;19;129156;-36
2023/10/24 10:41:21;;;;;;;131.57;7.47;;;;;;;23.44;53.94;98364.03;7292385;19;130365;-36
2023/10/24 10:43:47;;;;;;;165.05;8.73;;;;;;;23.40;54.86;98368.00;7294081;19;131043;-38
2023/10/24 10:46:16;;;;;;;77.83;4.67;;;;;;;23.36;55.15;98379.84;7294063;19;130276;-37
2023/10/24 10:48:47;;;;;;;113.93;6.97;;;;;;;23.33;54.80;98375.78;7293568;19;130144;-35
2023/10/24 10:51:15;;;;;;;104.90;6.25;;;;;;;23.32;54.84;98375.97;7290219;19;130342;-36
2023/10/24 10:54:02;;;;;;;136.93;7.70;;;;;;;23.20;55.77;98365.88;7294148;19;131103;-37
2023/10/24 10:56:31;;;;;;;134.50;7.47;;;;;;;23.29;55.82;98381.59;7293239;19;129415;-37
2023/10/24 10:59:02;;;;;;;140.65;8.13;;;;;;;23.25;56.09;98374.03;7294494;19;131512;-34
2023/10/24 11:02:05;;;;;;;133.90;7.55;;;;;;;23.14;56.16;98366.59;7289982;19;131381;-37
2023/10/24 11:04:30;;;;;;;128.18;7.47;;;;;;;23.27;53.54;98375.69;7294215;19;130637;-37
2023/10/24 11:06:59;;;;;;;157.77;9.23;;;;;;;23.34;52.92;98372.16;7293320;19;129650;-35
2023/10/24 11:09:32;;;;;;;144.48;8.68;;;;;;;23.42;51.71;98374.69;7290755;19;131092;-38
2023/10/24 11:12:22;;;;;;;172.98;9.52;;;;;;;23.45;54.49;98374.34;7290952;19;129205;-36